createdAt,value
2023-04-16T00:02:05.348Z,79.34
2023-04-16T00:04:22.437Z,79.63
2023-04-16T00:06:39.553Z,79.65
2023-04-16T00:08:56.832Z,78.75
2023-04-16T00:11:14.350Z,78.88
2023-04-16T00:13:31.297Z,79.66
2023-04-16T00:15:48.619Z,79.51
2023-04-16T00:18:05.869Z,79.79
2023-04-16T00:20:22.748Z,79.67
2023-04-16T00:22:39.644Z,78.80
2023-04-16T00:24:56.910Z,79.86
2023-04-16T00:27:13.952Z,79.80
2023-04-16T00:29:31.275Z,78.86
2023-04-16T00:31:48.215Z,79.60
2023-04-16T00:34:05.309Z,79.86
2023-04-16T00:36:23.518Z,80.08
2023-04-16T00:38:40.459Z,79.00
2023-04-16T00:40:57.761Z,78.54
2023-04-16T00:43:15.151Z,80.08
2023-04-16T00:45:32.387Z,80.15
2023-04-16T00:47:50.758Z,80.22
2023-04-16T00:50:07.766Z,80.18
2023-04-16T00:52:24.815Z,79.14
2023-04-16T00:54:42.881Z,80.27
2023-04-16T00:57:00.195Z,79.39
2023-04-16T00:59:17.479Z,79.25
2023-04-16T01:01:34.644Z,80.85
2023-04-16T01:03:51.800Z,80.65
2023-04-16T01:06:08.770Z,79.97
2023-04-16T01:08:25.742Z,79.13
2023-04-16T01:10:43.045Z,80.02
2023-04-16T01:12:59.987Z,79.74
2023-04-16T01:15:16.989Z,80.55
2023-04-16T01:17:34.003Z,80.57
2023-04-16T01:19:52.352Z,80.86
2023-04-16T01:22:09.607Z,80.14
2023-04-16T01:24:26.603Z,80.73
2023-04-16T01:26:43.825Z,80.94
2023-04-16T01:29:01.070Z,80.91
2023-04-16T01:31:18.230Z,79.58
2023-04-16T01:33:36.562Z,80.02
2023-04-16T01:35:53.844Z,80.35
2023-04-16T01:38:11.928Z,80.55
2023-04-16T01:40:29.569Z,80.14
2023-04-16T01:42:47.830Z,81.23
2023-04-16T01:45:04.865Z,81.06
2023-04-16T01:47:21.961Z,80.09
2023-04-16T01:49:39.048Z,80.98
2023-04-16T01:51:57.174Z,81.00
2023-04-16T01:54:14.427Z,80.80
2023-04-16T01:56:31.391Z,79.85
2023-04-16T01:58:49.330Z,80.73
2023-04-16T02:01:06.713Z,81.12
2023-04-16T02:03:25.194Z,80.91
2023-04-16T02:05:42.737Z,79.84
2023-04-16T02:07:59.821Z,81.15
2023-04-16T02:10:16.860Z,81.52
2023-04-16T02:12:33.927Z,81.23
2023-04-16T02:14:51.002Z,79.77
2023-04-16T02:17:08.255Z,80.03
2023-04-16T02:19:26.552Z,80.05
2023-04-16T02:21:43.803Z,80.03
2023-04-16T02:24:02.061Z,80.78
2023-04-16T02:26:19.040Z,81.62
2023-04-16T02:28:36.042Z,81.48
2023-04-16T02:30:52.933Z,81.62
2023-04-16T02:33:10.248Z,81.76
2023-04-16T02:35:27.544Z,80.48
2023-04-16T02:37:44.768Z,80.95
2023-04-16T02:40:01.844Z,80.90
2023-04-16T02:42:18.949Z,81.36
2023-04-16T02:44:36.190Z,80.40
2023-04-16T02:46:53.194Z,82.02
2023-04-16T02:49:11.370Z,82.15
2023-04-16T02:51:28.884Z,80.69
2023-04-16T02:53:46.190Z,82.12
2023-04-16T02:56:04.130Z,80.60
2023-04-16T02:58:21.190Z,80.43
2023-04-16T03:00:38.224Z,81.37
2023-04-16T03:02:55.509Z,81.24
2023-04-16T03:05:12.603Z,81.12
2023-04-16T03:07:29.532Z,81.82
2023-04-16T03:09:47.612Z,81.63
2023-04-16T03:12:04.617Z,80.70
2023-04-16T03:14:21.583Z,82.06
2023-04-16T03:16:38.824Z,80.91
2023-04-16T03:18:57.098Z,81.12
2023-04-16T03:21:13.978Z,82.09
2023-04-16T03:23:31.169Z,82.09
2023-04-16T03:25:48.167Z,81.41
2023-04-16T03:28:05.200Z,82.46
2023-04-16T03:30:22.218Z,81.67
2023-04-16T03:32:39.250Z,81.39
2023-04-16T03:34:56.285Z,81.87
2023-04-16T03:37:13.307Z,81.53
2023-04-16T03:39:31.268Z,82.02
2023-04-16T03:41:48.248Z,82.29
2023-04-16T03:44:05.190Z,81.33
2023-04-16T03:46:22.647Z,82.30
2023-04-16T03:48:40.915Z,83.73
2023-04-16T03:50:58.193Z,82.55
2023-04-16T03:53:15.161Z,83.73
2023-04-16T03:55:32.415Z,83.45
2023-04-16T03:57:49.354Z,82.52
2023-04-16T04:00:06.562Z,83.61
2023-04-16T04:02:23.942Z,84.04
2023-04-16T04:04:41.308Z,82.74
2023-04-16T04:06:58.397Z,82.69
2023-04-16T04:09:16.176Z,83.99
2023-04-16T04:11:33.207Z,83.27
2023-04-16T04:13:50.290Z,84.46
2023-04-16T04:16:07.358Z,83.23
2023-04-16T04:18:24.467Z,82.88
2023-04-16T04:20:41.787Z,82.64
2023-04-16T04:22:58.797Z,82.65
2023-04-16T04:25:15.821Z,82.92
2023-04-16T04:27:33.152Z,82.95
2023-04-16T04:29:50.401Z,83.27
2023-04-16T04:32:07.910Z,83.83
2023-04-16T04:34:25.050Z,82.94
2023-04-16T04:36:42.306Z,82.48
2023-04-16T04:38:59.528Z,82.40
2023-04-16T04:41:17.921Z,82.64
2023-04-16T04:43:35.186Z,82.91
2023-04-16T04:45:52.206Z,83.21
2023-04-16T04:48:09.285Z,83.19
2023-04-16T04:50:26.628Z,83.00
2023-04-16T04:52:43.868Z,83.75
2023-04-16T04:55:00.923Z,82.97
2023-04-16T04:57:18.208Z,83.79
2023-04-16T04:59:35.139Z,83.12
2023-04-16T05:01:52.198Z,83.23
2023-04-16T05:04:09.272Z,84.04
2023-04-16T05:06:28.341Z,82.67
2023-04-16T05:08:47.502Z,83.41
2023-04-16T05:11:04.706Z,83.82
2023-04-16T05:13:21.735Z,82.39
2023-04-16T05:15:38.778Z,82.25
2023-04-16T05:17:55.954Z,82.75
2023-04-16T05:20:13.244Z,82.77
2023-04-16T05:22:30.075Z,83.50
2023-04-16T05:24:47.277Z,83.17
2023-04-16T05:27:04.360Z,83.44
2023-04-16T05:29:21.334Z,83.00
2023-04-16T05:31:38.347Z,83.14
2023-04-16T05:33:55.298Z,83.53
2023-04-16T05:36:12.568Z,81.97
2023-04-16T05:38:29.552Z,82.92
2023-04-16T05:40:47.757Z,81.97
2023-04-16T05:43:04.828Z,81.54
2023-04-16T05:45:22.263Z,81.69
2023-04-16T05:47:39.547Z,82.78
2023-04-16T05:49:56.458Z,82.52
2023-04-16T05:52:13.736Z,82.70
2023-04-16T05:54:31.137Z,82.13
2023-04-16T05:56:48.549Z,82.41
2023-04-16T05:59:07.040Z,82.47
2023-04-16T06:01:24.374Z,81.92
2023-04-16T06:03:41.641Z,82.21
2023-04-16T06:05:59.790Z,81.16
2023-04-16T06:08:16.780Z,82.01
2023-04-16T06:10:33.721Z,80.76
2023-04-16T06:12:50.681Z,81.00
2023-04-16T06:15:08.008Z,81.53
2023-04-16T06:17:25.094Z,81.02
2023-04-16T06:19:42.167Z,81.78
2023-04-16T06:21:59.540Z,81.83
2023-04-16T06:24:16.613Z,81.25
2023-04-16T06:26:33.650Z,81.03
2023-04-16T06:28:50.530Z,80.95
2023-04-16T06:31:07.795Z,80.53
2023-04-16T06:33:24.911Z,81.32
2023-04-16T06:35:43.152Z,81.29
2023-04-16T06:38:00.436Z,80.25
2023-04-16T06:40:18.727Z,81.25
2023-04-16T06:42:35.591Z,81.13
2023-04-16T06:44:52.646Z,80.30
2023-04-16T06:47:09.911Z,79.77
2023-04-16T06:49:27.018Z,81.47
2023-04-16T06:51:44.092Z,80.19
2023-04-16T06:54:02.071Z,80.24
2023-04-16T06:56:19.084Z,81.63
2023-04-16T06:58:37.085Z,81.85
2023-04-16T07:00:54.130Z,81.35
2023-04-16T07:03:11.582Z,81.30
2023-04-16T07:05:28.892Z,81.62
2023-04-16T07:07:46.191Z,80.37
2023-04-16T07:10:03.218Z,80.56
2023-04-16T07:12:22.012Z,79.78
2023-04-16T07:14:39.986Z,80.12
2023-04-16T07:16:57.272Z,80.21
2023-04-16T07:19:14.319Z,78.94
2023-04-16T07:21:31.300Z,79.77
2023-04-16T07:23:48.281Z,79.47
2023-04-16T07:26:06.292Z,78.93
2023-04-16T07:28:23.299Z,79.40
2023-04-16T07:30:41.204Z,80.39
2023-04-16T07:32:58.542Z,78.90
2023-04-16T07:35:15.655Z,80.36
2023-04-16T07:37:32.654Z,78.50
2023-04-16T07:39:49.585Z,78.31
2023-04-16T07:42:06.442Z,78.08
2023-04-16T07:44:23.743Z,78.30
2023-04-16T07:46:46.897Z,77.67
2023-04-16T07:49:04.516Z,79.08
2023-04-16T07:51:21.708Z,78.69
2023-04-16T07:53:38.590Z,78.64
2023-04-16T07:55:55.840Z,77.29
2023-04-16T07:58:12.909Z,77.61
2023-04-16T08:00:31.123Z,77.70
2023-04-16T08:02:48.547Z,77.56
2023-04-16T08:05:05.923Z,77.05
2023-04-16T08:07:22.974Z,77.80
2023-04-16T08:09:39.979Z,77.77
2023-04-16T08:11:58.190Z,77.70
2023-04-16T08:14:15.276Z,79.28
2023-04-16T08:16:33.511Z,78.00
2023-04-16T08:18:50.739Z,77.86
2023-04-16T08:21:08.231Z,78.33
2023-04-16T08:23:25.298Z,78.10
2023-04-16T08:25:42.308Z,77.25
2023-04-16T08:28:00.169Z,77.29
2023-04-16T08:30:17.505Z,78.65
2023-04-16T08:32:35.538Z,77.95
2023-04-16T08:34:52.498Z,77.79
2023-04-16T08:37:09.634Z,77.73
2023-04-16T08:39:26.614Z,78.65
2023-04-16T08:41:43.639Z,77.89
2023-04-16T08:44:01.700Z,78.17
2023-04-16T08:46:18.996Z,77.37
2023-04-16T08:48:36.382Z,77.67
2023-04-16T08:50:55.508Z,78.68
2023-04-16T08:53:12.848Z,78.16
2023-04-16T08:55:30.152Z,78.21
2023-04-16T08:57:47.100Z,79.34
2023-04-16T09:00:04.036Z,79.08
2023-04-16T09:02:21.226Z,77.70
2023-04-16T09:04:38.439Z,78.07
2023-04-16T09:06:56.622Z,78.23
2023-04-16T09:09:13.626Z,78.33
2023-04-16T09:11:30.918Z,76.93
2023-04-16T09:13:48.149Z,78.25
2023-04-16T09:16:05.985Z,78.25
2023-04-16T09:18:22.980Z,77.45
2023-04-16T09:20:39.957Z,77.36
2023-04-16T09:22:57.194Z,77.26
2023-04-16T09:25:15.153Z,78.05
2023-04-16T09:27:32.450Z,77.73
2023-04-16T09:29:49.372Z,77.84
2023-04-16T09:32:06.687Z,76.72
2023-04-16T09:34:24.789Z,76.52
2023-04-16T09:36:41.786Z,77.29
2023-04-16T09:38:58.645Z,77.78
2023-04-16T09:41:15.890Z,77.74
2023-04-16T09:43:33.149Z,77.24
2023-04-16T09:45:50.474Z,77.67
2023-04-16T09:48:07.618Z,77.87
2023-04-16T09:50:24.649Z,77.81
2023-04-16T09:52:43.404Z,77.05
2023-04-16T09:55:00.392Z,76.72
2023-04-16T09:57:17.315Z,77.27
2023-04-16T09:59:34.632Z,76.23
2023-04-16T10:01:51.802Z,76.67
2023-04-16T10:04:09.110Z,75.99
2023-04-16T10:06:27.173Z,76.90
2023-04-16T10:08:44.515Z,77.06
2023-04-16T10:11:01.877Z,75.50
2023-04-16T10:13:19.970Z,75.11
2023-04-16T10:15:37.017Z,75.74
2023-04-16T10:17:55.245Z,75.58
2023-04-16T10:20:12.571Z,75.77
2023-04-16T10:22:29.525Z,75.25
2023-04-16T10:24:46.462Z,74.75
2023-04-16T10:27:03.726Z,74.87
2023-04-16T10:29:20.836Z,74.51
2023-04-16T10:31:38.103Z,73.22
2023-04-16T10:33:55.315Z,73.33
2023-04-16T10:36:12.288Z,73.45
2023-04-16T10:38:29.575Z,74.08
2023-04-16T10:40:46.572Z,73.65
2023-04-16T10:43:03.922Z,73.41
2023-04-16T10:45:20.952Z,73.11
2023-04-16T10:47:38.054Z,72.95
2023-04-16T10:49:55.892Z,72.34
2023-04-16T10:52:13.147Z,73.54
2023-04-16T10:54:30.346Z,72.92
2023-04-16T10:56:47.300Z,73.65
2023-04-16T10:59:05.659Z,73.40
2023-04-16T11:01:22.756Z,73.31
2023-04-16T11:03:39.839Z,73.67
2023-04-16T11:05:57.292Z,74.12
2023-04-16T11:08:14.544Z,74.22
2023-04-16T11:10:32.819Z,74.04
2023-04-16T11:12:49.870Z,73.64
2023-04-16T11:15:07.209Z,73.75
2023-04-16T11:17:24.287Z,74.09
2023-04-16T11:19:41.315Z,74.08
2023-04-16T11:21:58.520Z,73.33
2023-04-16T11:24:15.851Z,74.20
2023-04-16T11:26:32.859Z,73.67
2023-04-16T11:28:49.896Z,74.25
2023-04-16T11:31:06.898Z,73.59
2023-04-16T11:33:24.325Z,74.31
2023-04-16T11:35:41.452Z,74.83
2023-04-16T11:37:58.634Z,74.83
2023-04-16T11:40:16.643Z,75.63
2023-04-16T11:42:33.598Z,75.58
2023-04-16T11:44:50.892Z,75.33
2023-04-16T11:47:07.967Z,74.93
2023-04-16T11:49:25.262Z,75.80
2023-04-16T11:51:42.373Z,75.46
2023-04-16T11:53:59.409Z,74.87
2023-04-16T11:56:16.417Z,72.78
2023-04-16T11:58:34.447Z,72.15
2023-04-16T12:00:52.046Z,72.94
2023-04-16T12:03:09.281Z,73.60
2023-04-16T12:05:27.678Z,73.47
2023-04-16T12:07:44.698Z,73.20
2023-04-16T12:10:02.754Z,73.87
2023-04-16T12:12:20.039Z,73.49
2023-04-16T12:14:37.312Z,74.07
2023-04-16T12:16:55.395Z,73.39
2023-04-16T12:19:13.684Z,74.57
2023-04-16T12:21:32.011Z,74.44
2023-04-16T12:23:49.071Z,73.46
2023-04-16T12:26:06.434Z,73.99
2023-04-16T12:28:23.418Z,73.69
2023-04-16T12:30:40.530Z,74.12
2023-04-16T12:32:59.170Z,72.71
2023-04-16T12:35:17.536Z,73.89
2023-04-16T12:37:34.901Z,72.58
2023-04-16T12:39:53.606Z,73.07
2023-04-16T12:42:11.639Z,72.82
2023-04-16T12:44:28.678Z,72.74
2023-04-16T12:46:45.850Z,71.47
2023-04-16T12:49:02.994Z,71.34
2023-04-16T12:51:20.022Z,70.70
2023-04-16T12:53:37.044Z,70.54
2023-04-16T12:55:54.853Z,69.94
2023-04-16T12:58:12.677Z,70.96
2023-04-16T13:00:30.046Z,69.09
2023-04-16T13:02:48.184Z,69.93
2023-04-16T13:05:05.626Z,69.25
2023-04-16T13:07:22.719Z,68.83
2023-04-16T13:09:40.070Z,69.09
2023-04-16T13:11:57.151Z,70.14
2023-04-16T13:14:14.221Z,67.49
2023-04-16T13:16:31.468Z,66.93
2023-04-16T13:18:48.392Z,67.91
2023-04-16T13:21:05.365Z,67.31
2023-04-16T13:23:22.702Z,67.95
2023-04-16T13:25:39.734Z,67.09
2023-04-16T13:27:57.033Z,66.93
2023-04-16T13:30:14.077Z,67.94
2023-04-16T13:32:31.154Z,68.31
2023-04-16T13:34:48.437Z,68.17
2023-04-16T13:37:05.636Z,64.99
2023-04-16T13:39:23.148Z,66.54
2023-04-16T13:41:40.377Z,65.53
2023-04-16T13:43:58.236Z,64.92
2023-04-16T13:46:15.296Z,66.14
2023-04-16T13:48:33.293Z,65.31
2023-04-16T13:50:50.296Z,64.93
2023-04-16T13:53:07.518Z,65.26
2023-04-16T13:55:24.743Z,65.14
2023-04-16T13:57:42.005Z,65.09
2023-04-16T13:59:58.919Z,64.67
2023-04-16T14:02:15.943Z,64.10
2023-04-16T14:04:33.200Z,63.20
2023-04-16T14:06:51.115Z,63.04
2023-04-16T14:09:08.312Z,64.18
2023-04-16T14:11:25.646Z,63.80
2023-04-16T14:13:43.597Z,63.20
2023-04-16T14:16:00.671Z,62.44
2023-04-16T14:18:19.388Z,62.87
2023-04-16T14:20:36.349Z,63.41
2023-04-16T14:22:53.571Z,63.42
2023-04-16T14:25:10.789Z,63.80
2023-04-16T14:27:29.073Z,63.43
2023-04-16T14:29:46.157Z,61.80
2023-04-16T14:32:03.234Z,64.08
2023-04-16T14:34:20.325Z,63.06
2023-04-16T14:36:37.407Z,63.85
2023-04-16T14:38:55.394Z,62.49
2023-04-16T14:41:12.683Z,62.60
2023-04-16T14:43:29.788Z,62.39
2023-04-16T14:45:47.084Z,62.61
2023-04-16T14:48:04.189Z,62.24
2023-04-16T14:50:21.481Z,62.93
2023-04-16T14:52:38.536Z,63.47
2023-04-16T14:54:55.432Z,63.45
2023-04-16T14:57:12.370Z,62.83
2023-04-16T14:59:30.473Z,62.71
2023-04-16T15:01:47.524Z,61.92
2023-04-16T15:04:05.822Z,62.36
2023-04-16T15:06:22.906Z,62.64
2023-04-16T15:08:40.142Z,62.47
2023-04-16T15:10:58.175Z,63.00
2023-04-16T15:13:15.126Z,63.20
2023-04-16T15:15:32.134Z,62.79
2023-04-16T15:17:49.165Z,62.52
2023-04-16T15:20:06.221Z,63.75
2023-04-16T15:22:23.335Z,62.44
2023-04-16T15:24:40.201Z,64.77
2023-04-16T15:26:57.544Z,62.16
2023-04-16T15:29:14.540Z,63.27
2023-04-16T15:31:31.852Z,62.44
2023-04-16T15:33:48.864Z,62.21
2023-04-16T15:36:06.218Z,62.57
2023-04-16T15:38:23.333Z,63.25
2023-04-16T15:40:40.631Z,62.47
2023-04-16T15:42:57.680Z,62.81
2023-04-16T15:45:14.610Z,64.43
2023-04-16T15:47:31.555Z,64.70
2023-04-16T15:49:49.582Z,63.78
2023-04-16T15:52:06.841Z,65.17
2023-04-16T15:54:23.789Z,64.01
2023-04-16T15:56:40.880Z,64.80
2023-04-16T15:58:58.157Z,64.54
2023-04-16T16:01:15.262Z,65.00
2023-04-16T16:03:32.729Z,65.43
2023-04-16T16:05:49.903Z,66.11
2023-04-16T16:08:06.956Z,64.91
2023-04-16T16:10:25.291Z,66.61
2023-04-16T16:12:42.294Z,65.33
2023-04-16T16:15:00.495Z,65.48
2023-04-16T16:17:18.500Z,66.67
2023-04-16T16:19:35.556Z,65.32
2023-04-16T16:21:52.926Z,65.62
2023-04-16T16:24:09.924Z,66.45
2023-04-16T16:26:27.186Z,65.70
2023-04-16T16:28:45.113Z,65.54
2023-04-16T16:31:02.226Z,65.27
2023-04-16T16:33:19.363Z,64.19
2023-04-16T16:35:36.655Z,65.82
2023-04-16T16:37:53.716Z,65.76
2023-04-16T16:40:10.776Z,67.12
2023-04-16T16:42:27.789Z,65.35
2023-04-16T16:44:46.092Z,67.03
2023-04-16T16:47:03.408Z,65.48
2023-04-16T16:49:20.770Z,65.78
2023-04-16T16:51:37.744Z,66.11
2023-04-16T16:53:54.695Z,67.00
2023-04-16T16:56:11.637Z,66.14
2023-04-16T16:58:28.693Z,65.79
2023-04-16T17:00:45.730Z,67.75
2023-04-16T17:03:02.983Z,66.43
2023-04-16T17:05:20.302Z,66.59
2023-04-16T17:07:37.370Z,66.55
2023-04-16T17:09:54.638Z,68.45
2023-04-16T17:12:11.744Z,67.81
2023-04-16T17:14:28.778Z,67.98
2023-04-16T17:16:45.756Z,67.57
2023-04-16T17:19:03.086Z,68.65
2023-04-16T17:21:20.348Z,68.51
2023-04-16T17:23:38.766Z,69.32
2023-04-16T17:25:58.224Z,68.74
2023-04-16T17:28:15.196Z,67.92
2023-04-16T17:30:32.217Z,69.15
2023-04-16T17:32:50.347Z,69.50
2023-04-16T17:35:07.717Z,69.67
2023-04-16T17:37:25.802Z,69.35
2023-04-16T17:39:42.866Z,69.65
2023-04-16T17:42:00.162Z,69.58
2023-04-16T17:44:17.631Z,70.14
2023-04-16T17:46:34.955Z,70.38
2023-04-16T17:48:52.133Z,70.71
2023-04-16T17:51:09.353Z,70.40
2023-04-16T17:53:26.592Z,71.50
2023-04-16T17:55:44.541Z,71.73
2023-04-16T17:58:01.882Z,72.11
2023-04-16T18:00:18.963Z,71.66
2023-04-16T18:02:36.324Z,71.89
2023-04-16T18:04:53.434Z,72.36
2023-04-16T18:07:10.661Z,72.38
2023-04-16T18:09:28.990Z,73.47
2023-04-16T18:11:46.070Z,73.27
2023-04-16T18:14:03.001Z,73.08
2023-04-16T18:16:20.333Z,73.59
2023-04-16T18:18:37.576Z,74.29
2023-04-16T18:20:54.890Z,74.62
2023-04-16T18:23:11.919Z,75.05
2023-04-16T18:25:34.326Z,75.19
2023-04-16T18:27:52.113Z,75.25
2023-04-16T18:30:19.553Z,75.36
2023-04-16T18:32:56.167Z,75.67
2023-04-16T18:35:18.175Z,75.83
2023-04-16T18:37:36.443Z,76.60
2023-04-16T18:39:54.018Z,76.75
2023-04-16T18:42:12.042Z,77.23
2023-04-16T18:44:29.975Z,77.20
2023-04-16T18:46:47.097Z,76.84
2023-04-16T18:49:04.149Z,76.92
2023-04-16T18:51:22.391Z,77.32
2023-04-16T18:53:39.330Z,78.21
2023-04-16T18:55:57.128Z,78.44
2023-04-16T18:58:14.190Z,77.12
2023-04-16T19:00:32.110Z,78.82
2023-04-16T19:02:49.285Z,78.73
2023-04-16T19:05:08.410Z,78.36
2023-04-16T19:07:25.701Z,78.65
2023-04-16T19:09:42.690Z,79.34
2023-04-16T19:12:00.247Z,79.14
2023-04-16T19:14:17.338Z,79.32
2023-04-16T19:16:34.420Z,79.57
2023-04-16T19:18:51.715Z,80.66
2023-04-16T19:21:08.708Z,79.65
2023-04-16T19:23:25.778Z,79.84
2023-04-16T19:25:42.817Z,79.87
2023-04-16T19:28:00.052Z,79.52
2023-04-16T19:30:18.412Z,80.09
2023-04-16T19:32:35.373Z,79.08
2023-04-16T19:34:52.408Z,79.64
2023-04-16T19:37:09.392Z,78.49
2023-04-16T19:39:26.482Z,78.89
2023-04-16T19:41:44.816Z,79.23
2023-04-16T19:44:01.884Z,79.30
2023-04-16T19:46:19.257Z,78.90
2023-04-16T19:48:36.326Z,79.61
2023-04-16T19:50:53.386Z,79.70
2023-04-16T19:53:10.405Z,79.06
2023-04-16T19:55:28.732Z,80.03
2023-04-16T19:57:46.055Z,79.97
2023-04-16T20:00:04.234Z,80.07
2023-04-16T20:02:21.327Z,80.67
2023-04-16T20:04:38.406Z,80.84
2023-04-16T20:06:55.529Z,80.92
2023-04-16T20:09:12.860Z,80.68
2023-04-16T20:11:30.298Z,80.80
2023-04-16T20:13:47.194Z,80.46
2023-04-16T20:16:04.263Z,81.51
2023-04-16T20:18:22.351Z,81.45
2023-04-16T20:20:39.340Z,81.64
2023-04-16T20:22:56.601Z,83.02
2023-04-16T20:25:13.716Z,83.31
2023-04-16T20:27:31.069Z,83.59
2023-04-16T20:29:48.345Z,84.02
2023-04-16T20:32:06.365Z,85.04
2023-04-16T20:34:23.706Z,84.08
2023-04-16T20:36:42.046Z,85.26
2023-04-16T20:38:59.490Z,85.77
2023-04-16T20:41:16.500Z,86.54
2023-04-16T20:43:33.404Z,86.05
2023-04-16T20:45:50.443Z,86.51
2023-04-16T20:48:07.559Z,85.84
2023-04-16T20:50:24.874Z,85.23
2023-04-16T20:52:41.801Z,86.81
2023-04-16T20:54:59.082Z,86.96
2023-04-16T20:57:16.102Z,86.77
2023-04-16T20:59:33.378Z,88.04
2023-04-16T21:01:50.423Z,87.98
2023-04-16T21:04:07.511Z,86.85
2023-04-16T21:06:24.840Z,87.46
2023-04-16T21:08:42.119Z,88.46
2023-04-16T21:10:59.256Z,87.37
2023-04-16T21:13:16.186Z,87.36
2023-04-16T21:15:33.157Z,88.62
2023-04-16T21:17:50.256Z,87.13
2023-04-16T21:20:07.666Z,87.33
2023-04-16T21:22:24.668Z,88.72
2023-04-16T21:24:41.756Z,88.76
2023-04-16T21:26:58.669Z,87.18
2023-04-16T21:29:15.675Z,88.54
2023-04-16T21:31:32.846Z,87.66
2023-04-16T21:33:49.956Z,88.30
2023-04-16T21:36:07.867Z,88.34
2023-04-16T21:38:25.192Z,87.48
2023-04-16T21:40:42.429Z,89.01
2023-04-16T21:42:59.708Z,88.58
2023-04-16T21:45:16.926Z,87.95
2023-04-16T21:47:35.222Z,88.23
2023-04-16T21:49:52.560Z,87.70
2023-04-16T21:52:09.509Z,87.35
2023-04-16T21:54:26.701Z,87.37
2023-04-16T21:56:43.982Z,86.51
2023-04-16T21:59:00.883Z,87.02
2023-04-16T22:01:19.029Z,87.11
2023-04-16T22:03:36.287Z,86.64
2023-04-16T22:05:53.792Z,87.28
2023-04-16T22:08:23.265Z,87.79
2023-04-16T22:10:41.280Z,87.87
2023-04-16T22:12:58.609Z,87.88
2023-04-16T22:15:15.936Z,87.66
2023-04-16T22:17:32.896Z,87.87
2023-04-16T22:19:49.841Z,87.68
2023-04-16T22:22:06.932Z,88.66
2023-04-16T22:24:24.019Z,88.37
2023-04-16T22:26:41.056Z,87.30
2023-04-16T22:28:58.065Z,88.75
2023-04-16T22:31:14.981Z,88.31
2023-04-16T22:33:32.269Z,87.75
2023-04-16T22:35:49.503Z,88.29
2023-04-16T22:38:06.483Z,88.17
2023-04-16T22:40:24.572Z,88.36
2023-04-16T22:42:41.938Z,87.79
2023-04-16T22:44:58.868Z,88.00
2023-04-16T22:47:15.881Z,87.94
2023-04-16T22:49:33.273Z,87.73
2023-04-16T22:51:52.465Z,88.33
2023-04-16T22:54:10.015Z,88.61
2023-04-16T22:56:28.171Z,88.50
2023-04-16T22:58:45.124Z,86.77
2023-04-16T23:01:03.546Z,86.55
2023-04-16T23:03:22.310Z,87.96
2023-04-16T23:05:39.337Z,87.26
2023-04-16T23:07:56.696Z,88.44
2023-04-16T23:10:13.663Z,86.81
2023-04-16T23:12:30.611Z,87.22
2023-04-16T23:14:47.884Z,87.80
2023-04-16T23:17:05.977Z,87.70
2023-04-16T23:19:24.053Z,88.26
2023-04-16T23:21:42.065Z,87.52
2023-04-16T23:23:59.412Z,88.46
2023-04-16T23:26:16.382Z,87.85
2023-04-16T23:28:33.591Z,87.53
2023-04-16T23:30:51.541Z,88.29
2023-04-16T23:33:08.471Z,88.02
2023-04-16T23:35:25.842Z,89.49
2023-04-16T23:37:42.904Z,89.00
2023-04-16T23:40:00.166Z,88.97
2023-04-16T23:42:17.310Z,89.38
2023-04-16T23:44:34.432Z,90.01
2023-04-16T23:46:51.648Z,90.42
2023-04-16T23:49:08.850Z,89.62
2023-04-16T23:51:26.028Z,89.42
2023-04-16T23:53:43.444Z,88.89
2023-04-16T23:56:00.535Z,90.01
2023-04-16T23:58:17.519Z,89.91
